sensor_id;sensor_type;location;lat;lon;timestamp;pressure;altitude;pressure_sealevel;temperature;humidity
74913;BME280;63878;55.624;37.304;2023-05-19T00:02:00;99591.22;;;12.86;58.93
74913;BME280;63878;55.624;37.304;2023-05-19T00:12:01;99598.72;;;12.72;59.99
74913;BME280;63878;55.624;37.304;2023-05-19T00:22:02;99605.22;;;12.58;60.41
74913;BME280;63878;55.624;37.304;2023-05-19T00:32:02;99626.25;;;12.50;60.53
74913;BME280;63878;55.624;37.304;2023-05-19T00:42:03;99637.66;;;12.40;61.25
74913;BME280;63878;55.624;37.304;2023-05-19T00:52:05;99634.56;;;12.35;61.25
74913;BME280;63878;55.624;37.304;2023-05-19T01:02:06;99630.88;;;12.07;61.55
74913;BME280;63878;55.624;37.304;2023-05-19T01:12:06;99641.38;;;11.98;62.59
74913;BME280;63878;55.624;37.304;2023-05-19T01:32:24;99667.41;;;11.72;62.22
74913;BME280;63878;55.624;37.304;2023-05-19T01:42:26;99660.63;;;11.58;63.41
74913;BME280;63878;55.624;37.304;2023-05-19T01:52:26;99622.13;;;11.44;63.19
74913;BME280;63878;55.624;37.304;2023-05-19T02:02:54;99656.19;;;11.58;61.70
74913;BME280;63878;55.624;37.304;2023-05-19T02:12:59;99674.97;;;11.23;61.60
74913;BME280;63878;55.624;37.304;2023-05-19T02:23:00;99689.25;;;11.00;59.44
74913;BME280;63878;55.624;37.304;2023-05-19T02:33:01;99695.78;;;10.73;59.98
74913;BME280;63878;55.624;37.304;2023-05-19T02:43:02;99691.00;;;10.22;55.77
74913;BME280;63878;55.624;37.304;2023-05-19T02:53:03;99698.78;;;10.69;51.53
74913;BME280;63878;55.624;37.304;2023-05-19T03:03:03;99707.31;;;10.50;51.71
74913;BME280;63878;55.624;37.304;2023-05-19T03:13:04;99735.88;;;10.45;52.55
74913;BME280;63878;55.624;37.304;2023-05-19T03:23:05;99737.56;;;10.46;52.86
74913;BME280;63878;55.624;37.304;2023-05-19T03:33:05;99737.91;;;10.30;53.74
74913;BME280;63878;55.624;37.304;2023-05-19T03:43:06;99745.00;;;10.41;54.12
74913;BME280;63878;55.624;37.304;2023-05-19T03:53:06;99760.94;;;10.28;54.61
74913;BME280;63878;55.624;37.304;2023-05-19T04:03:07;99767.75;;;10.31;54.71
74913;BME280;63878;55.624;37.304;2023-05-19T04:13:07;99764.56;;;9.81;55.86
74913;BME280;63878;55.624;37.304;2023-05-19T04:23:08;99771.50;;;9.82;57.06
74913;BME280;63878;55.624;37.304;2023-05-19T04:33:08;99771.91;;;9.64;57.95
74913;BME280;63878;55.624;37.304;2023-05-19T04:43:09;99769.13;;;8.94;60.84
74913;BME280;63878;55.624;37.304;2023-05-19T04:53:10;99754.44;;;8.79;61.04
74913;BME280;63878;55.624;37.304;2023-05-19T05:03:10;99787.22;;;8.49;63.03
74913;BME280;63878;55.624;37.304;2023-05-19T05:13:11;99795.28;;;8.08;64.54
74913;BME280;63878;55.624;37.304;2023-05-19T05:23:12;99796.47;;;8.29;63.11
74913;BME280;63878;55.624;37.304;2023-05-19T05:33:13;99799.34;;;8.39;63.34
74913;BME280;63878;55.624;37.304;2023-05-19T05:43:14;99804.59;;;8.39;62.23
74913;BME280;63878;55.624;37.304;2023-05-19T05:53:18;99811.28;;;8.18;63.95
74913;BME280;63878;55.624;37.304;2023-05-19T06:03:18;99815.97;;;7.87;65.72
74913;BME280;63878;55.624;37.304;2023-05-19T06:13:19;99815.00;;;8.41;63.72
74913;BME280;63878;55.624;37.304;2023-05-19T06:23:20;99825.66;;;8.52;64.67
74913;BME280;63878;55.624;37.304;2023-05-19T06:33:20;99832.59;;;8.00;66.31
74913;BME280;63878;55.624;37.304;2023-05-19T06:43:21;99829.94;;;8.53;65.34
74913;BME280;63878;55.624;37.304;2023-05-19T06:53:22;99830.88;;;8.26;64.71
74913;BME280;63878;55.624;37.304;2023-05-19T07:03:22;99838.38;;;8.32;64.38
74913;BME280;63878;55.624;37.304;2023-05-19T07:13:23;99838.25;;;8.34;64.85
74913;BME280;63878;55.624;37.304;2023-05-19T07:23:23;99847.59;;;8.89;63.04
74913;BME280;63878;55.624;37.304;2023-05-19T07:33:24;99846.34;;;9.68;59.75
74913;BME280;63878;55.624;37.304;2023-05-19T07:43:25;99843.44;;;9.60;59.34
74913;BME280;63878;55.624;37.304;2023-05-19T07:53:25;99835.63;;;9.22;58.98
74913;BME280;63878;55.624;37.304;2023-05-19T08:03:26;99839.94;;;9.23;57.13
74913;BME280;63878;55.624;37.304;2023-05-19T08:13:26;99827.97;;;9.55;55.38
74913;BME280;63878;55.624;37.304;2023-05-19T08:23:27;99863.03;;;10.39;52.23
74913;BME280;63878;55.624;37.304;2023-05-19T08:33:28;99849.91;;;9.91;51.76
74913;BME280;63878;55.624;37.304;2023-05-19T08:43:28;99841.56;;;10.43;49.54
74913;BME280;63878;55.624;37.304;2023-05-19T08:53:36;99840.81;;;9.60;47.66
74913;BME280;63878;55.624;37.304;2023-05-19T09:03:39;99852.44;;;10.27;44.63
74913;BME280;63878;55.624;37.304;2023-05-19T09:13:41;99860.75;;;9.99;43.94
74913;BME280;63878;55.624;37.304;2023-05-19T09:23:45;99833.09;;;11.07;42.85
74913;BME280;63878;55.624;37.304;2023-05-19T09:33:46;99834.44;;;10.68;42.60
74913;BME280;63878;55.624;37.304;2023-05-19T09:43:53;99823.97;;;11.00;41.09
74913;BME280;63878;55.624;37.304;2023-05-19T09:53:54;99815.91;;;11.99;41.66
74913;BME280;63878;55.624;37.304;2023-05-19T10:03:54;99798.47;;;11.32;39.83
74913;BME280;63878;55.624;37.304;2023-05-19T10:13:55;99809.31;;;11.61;39.30
74913;BME280;63878;55.624;37.304;2023-05-19T10:23:57;99809.31;;;12.14;37.81
74913;BME280;63878;55.624;37.304;2023-05-19T10:54:40;99821.31;;;11.22;37.75
74913;BME280;63878;55.624;37.304;2023-05-19T11:04:47;99804.94;;;12.76;35.11
74913;BME280;63878;55.624;37.304;2023-05-19T11:14:51;99808.44;;;12.56;35.46
74913;BME280;63878;55.624;37.304;2023-05-19T11:24:55;99788.66;;;12.08;35.73
74913;BME280;63878;55.624;37.304;2023-05-19T11:34:56;99812.22;;;11.91;35.93
74913;BME280;63878;55.624;37.304;2023-05-19T11:44:57;99797.72;;;12.27;34.81
74913;BME280;63878;55.624;37.304;2023-05-19T11:55:00;99797.88;;;13.56;34.60
74913;BME280;63878;55.624;37.304;2023-05-19T12:05:01;99815.59;;;12.86;34.27
74913;BME280;63878;55.624;37.304;2023-05-19T12:15:02;99806.44;;;13.09;34.63
74913;BME280;63878;55.624;37.304;2023-05-19T12:25:03;99810.97;;;12.57;33.21
74913;BME280;63878;55.624;37.304;2023-05-19T12:35:05;99823.63;;;11.91;34.16
74913;BME280;63878;55.624;37.304;2023-05-19T12:45:06;99787.41;;;11.92;32.62
74913;BME280;63878;55.624;37.304;2023-05-19T12:55:08;99825.78;;;13.50;30.77
74913;BME280;63878;55.624;37.304;2023-05-19T13:05:08;99813.84;;;13.06;29.75
74913;BME280;63878;55.624;37.304;2023-05-19T13:15:09;99821.84;;;12.64;32.04
74913;BME280;63878;55.624;37.304;2023-05-19T13:25:10;99828.03;;;12.23;31.38
74913;BME280;63878;55.624;37.304;2023-05-19T13:35:12;99832.94;;;12.48;30.34
74913;BME280;63878;55.624;37.304;2023-05-19T13:45:13;99800.28;;;12.17;31.61
74913;BME280;63878;55.624;37.304;2023-05-19T13:55:13;99820.41;;;12.29;32.17
74913;BME280;63878;55.624;37.304;2023-05-19T14:05:14;99835.44;;;11.87;32.40
74913;BME280;63878;55.624;37.304;2023-05-19T14:15:14;99835.28;;;12.21;31.95
74913;BME280;63878;55.624;37.304;2023-05-19T14:25:15;99833.47;;;12.21;33.25
74913;BME280;63878;55.624;37.304;2023-05-19T14:35:16;99834.16;;;12.44;31.44
74913;BME280;63878;55.624;37.304;2023-05-19T14:45:16;99822.56;;;12.14;33.58
74913;BME280;63878;55.624;37.304;2023-05-19T14:55:17;99808.91;;;12.61;31.53
74913;BME280;63878;55.624;37.304;2023-05-19T15:05:18;99812.75;;;13.18;31.51
74913;BME280;63878;55.624;37.304;2023-05-19T15:15:19;99823.09;;;13.31;30.88
74913;BME280;63878;55.624;37.304;2023-05-19T15:25:19;99822.16;;;12.70;31.04
74913;BME280;63878;55.624;37.304;2023-05-19T15:35:20;99811.38;;;12.53;31.64
74913;BME280;63878;55.624;37.304;2023-05-19T15:45:21;99818.59;;;12.51;31.32
74913;BME280;63878;55.624;37.304;2023-05-19T15:55:21;99829.34;;;12.07;32.33
74913;BME280;63878;55.624;37.304;2023-05-19T16:05:22;99830.22;;;12.38;32.86
74913;BME280;63878;55.624;37.304;2023-05-19T16:15:23;99840.63;;;11.45;33.42
74913;BME280;63878;55.624;37.304;2023-05-19T16:25:23;99842.88;;;11.50;33.67
74913;BME280;63878;55.624;37.304;2023-05-19T16:35:24;99851.56;;;11.18;34.89
74913;BME280;63878;55.624;37.304;2023-05-19T16:45:24;99852.53;;;11.28;35.85
74913;BME280;63878;55.624;37.304;2023-05-19T16:55:25;99868.13;;;10.64;37.07
74913;BME280;63878;55.624;37.304;2023-05-19T17:05:26;99863.78;;;10.52;38.05
74913;BME280;63878;55.624;37.304;2023-05-19T17:15:26;99863.78;;;10.52;38.44
74913;BME280;63878;55.624;37.304;2023-05-19T17:25:27;99890.13;;;11.10;37.64
74913;BME280;63878;55.624;37.304;2023-05-19T17:35:27;99912.47;;;11.28;37.14
74913;BME280;63878;55.624;37.304;2023-05-19T17:45:28;99891.56;;;10.91;37.72
74913;BME280;63878;55.624;37.304;2023-05-19T17:55:29;99920.75;;;11.01;38.15
74913;BME280;63878;55.624;37.304;2023-05-19T18:05:30;99928.19;;;10.73;38.59
74913;BME280;63878;55.624;37.304;2023-05-19T18:15:31;99936.81;;;10.40;39.04
74913;BME280;63878;55.624;37.304;2023-05-19T18:25:31;99953.06;;;10.23;40.18
74913;BME280;63878;55.624;37.304;2023-05-19T18:35:32;99946.56;;;10.16;40.56
74913;BME280;63878;55.624;37.304;2023-05-19T18:45:35;99950.72;;;9.21;42.60
74913;BME280;63878;55.624;37.304;2023-05-19T18:55:36;99925.03;;;8.99;43.28
74913;BME280;63878;55.624;37.304;2023-05-19T19:05:37;99950.19;;;9.03;43.76
74913;BME280;63878;55.624;37.304;2023-05-19T19:15:37;99948.84;;;8.98;43.85
74913;BME280;63878;55.624;37.304;2023-05-19T19:25:38;99960.03;;;8.49;46.08
74913;BME280;63878;55.624;37.304;2023-05-19T19:35:38;99968.00;;;8.87;44.07
74913;BME280;63878;55.624;37.304;2023-05-19T19:45:39;99966.94;;;8.89;45.23
74913;BME280;63878;55.624;37.304;2023-05-19T19:55:39;99965.69;;;9.08;44.21
74913;BME280;63878;55.624;37.304;2023-05-19T20:05:40;99980.63;;;8.95;45.24
74913;BME280;63878;55.624;37.304;2023-05-19T20:15:41;99986.44;;;9.25;47.41
74913;BME280;63878;55.624;37.304;2023-05-19T20:25:42;99986.22;;;9.15;44.46
74913;BME280;63878;55.624;37.304;2023-05-19T20:35:43;99994.84;;;8.92;44.11
74913;BME280;63878;55.624;37.304;2023-05-19T20:45:43;100006.66;;;9.25;43.33
74913;BME280;63878;55.624;37.304;2023-05-19T20:55:44;100008.44;;;8.86;43.75
74913;BME280;63878;55.624;37.304;2023-05-19T21:05:45;100023.63;;;8.28;45.29
74913;BME280;63878;55.624;37.304;2023-05-19T21:15:46;100026.84;;;8.19;45.30
74913;BME280;63878;55.624;37.304;2023-05-19T21:25:46;100027.78;;;8.18;44.95
74913;BME280;63878;55.624;37.304;2023-05-19T21:35:47;100023.53;;;8.16;45.12
74913;BME280;63878;55.624;37.304;2023-05-19T21:45:47;100025.81;;;8.49;44.73
74913;BME280;63878;55.624;37.304;2023-05-19T21:55:48;100020.34;;;7.98;47.60
74913;BME280;63878;55.624;37.304;2023-05-19T22:05:50;100022.03;;;7.85;47.69
74913;BME280;63878;55.624;37.304;2023-05-19T22:15:51;100021.03;;;7.59;48.97
74913;BME280;63878;55.624;37.304;2023-05-19T22:25:51;100024.13;;;7.65;49.16
74913;BME280;63878;55.624;37.304;2023-05-19T22:35:52;100027.84;;;7.75;48.67
74913;BME280;63878;55.624;37.304;2023-05-19T22:45:52;100027.69;;;7.78;48.47
74913;BME280;63878;55.624;37.304;2023-05-19T22:55:53;100022.91;;;7.57;49.95
74913;BME280;63878;55.624;37.304;2023-05-19T23:05:53;100019.72;;;7.51;50.35
74913;BME280;63878;55.624;37.304;2023-05-19T23:15:54;100018.88;;;7.51;49.79
74913;BME280;63878;55.624;37.304;2023-05-19T23:25:54;100014.84;;;7.31;50.69
74913;BME280;63878;55.624;37.304;2023-05-19T23:35:55;99988.28;;;7.21;50.45
74913;BME280;63878;55.624;37.304;2023-05-19T23:45:55;99998.31;;;7.15;51.93
74913;BME280;63878;55.624;37.304;2023-05-19T23:55:56;99998.53;;;7.12;50.75
